sensor_id;sensor_type;location;lat;lon;timestamp;P1;durP1;ratioP1;P2;durP2;ratioP2
3811;SDS011;1921;49.368;11.068;2022-09-09T00:04:42;53.97;;;48.37;;
3811;SDS011;1921;49.368;11.068;2022-09-09T00:07:38;54.60;;;48.70;;
3811;SDS011;1921;49.368;11.068;2022-09-09T00:16:03;54.47;;;48.87;;
3811;SDS011;1921;49.368;11.068;2022-09-09T00:21:36;53.60;;;48.10;;
3811;SDS011;1921;49.368;11.068;2022-09-09T00:24:23;54.17;;;48.37;;
3811;SDS011;1921;49.368;11.068;2022-09-09T00:27:18;54.60;;;48.90;;
3811;SDS011;1921;49.368;11.068;2022-09-09T00:32:49;54.30;;;48.57;;
3811;SDS011;1921;49.368;11.068;2022-09-09T00:35:29;53.13;;;47.73;;
3811;SDS011;1921;49.368;11.068;2022-09-09T00:38:16;54.00;;;48.23;;
3811;SDS011;1921;49.368;11.068;2022-09-09T00:41:23;55.23;;;49.30;;
3811;SDS011;1921;49.368;11.068;2022-09-09T00:44:06;54.40;;;48.80;;
3811;SDS011;1921;49.368;11.068;2022-09-09T00:56:01;53.70;;;48.30;;
3811;SDS011;1921;49.368;11.068;2022-09-09T00:58:31;54.77;;;49.27;;
3811;SDS011;1921;49.368;11.068;2022-09-09T01:01:04;53.60;;;48.20;;
3811;SDS011;1921;49.368;11.068;2022-09-09T01:03:39;53.80;;;48.20;;
3811;SDS011;1921;49.368;11.068;2022-09-09T01:06:32;54.00;;;48.40;;
3811;SDS011;1921;49.368;11.068;2022-09-09T01:09:09;54.03;;;48.30;;
3811;SDS011;1921;49.368;11.068;2022-09-09T01:11:48;54.80;;;49.20;;
3811;SDS011;1921;49.368;11.068;2022-09-09T01:14:43;54.30;;;48.60;;
3811;SDS011;1921;49.368;11.068;2022-09-09T01:17:21;54.17;;;48.50;;
3811;SDS011;1921;49.368;11.068;2022-09-09T01:20:15;53.90;;;48.30;;
3811;SDS011;1921;49.368;11.068;2022-09-09T01:29:13;53.83;;;48.30;;
3811;SDS011;1921;49.368;11.068;2022-09-09T01:31:52;53.70;;;47.97;;
3811;SDS011;1921;49.368;11.068;2022-09-09T01:34:22;53.50;;;48.00;;
3811;SDS011;1921;49.368;11.068;2022-09-09T01:37:11;53.00;;;47.80;;
3811;SDS011;1921;49.368;11.068;2022-09-09T01:39:38;60.80;;;48.00;;
3811;SDS011;1921;49.368;11.068;2022-09-09T01:42:09;53.30;;;47.80;;
3811;SDS011;1921;49.368;11.068;2022-09-09T01:44:38;53.13;;;47.83;;
3811;SDS011;1921;49.368;11.068;2022-09-09T01:47:04;53.83;;;48.33;;
3811;SDS011;1921;49.368;11.068;2022-09-09T01:49:31;53.07;;;47.67;;
3811;SDS011;1921;49.368;11.068;2022-09-09T01:51:57;54.00;;;48.20;;
3811;SDS011;1921;49.368;11.068;2022-09-09T01:54:25;53.40;;;48.10;;
3811;SDS011;1921;49.368;11.068;2022-09-09T01:57:13;53.73;;;48.23;;
3811;SDS011;1921;49.368;11.068;2022-09-09T01:59:51;53.60;;;47.87;;
3811;SDS011;1921;49.368;11.068;2022-09-09T02:05:11;53.40;;;48.00;;
3811;SDS011;1921;49.368;11.068;2022-09-09T02:07:59;53.77;;;48.17;;
3811;SDS011;1921;49.368;11.068;2022-09-09T02:13:12;53.53;;;48.13;;
3811;SDS011;1921;49.368;11.068;2022-09-09T02:18:38;56.93;;;47.73;;
3811;SDS011;1921;49.368;11.068;2022-09-09T02:21:39;53.40;;;48.00;;
3811;SDS011;1921;49.368;11.068;2022-09-09T02:24:09;53.23;;;47.93;;
3811;SDS011;1921;49.368;11.068;2022-09-09T02:26:39;53.90;;;48.43;;
3811;SDS011;1921;49.368;11.068;2022-09-09T02:29:20;52.80;;;47.50;;
3811;SDS011;1921;49.368;11.068;2022-09-09T02:32:00;54.33;;;48.63;;
3811;SDS011;1921;49.368;11.068;2022-09-09T02:34:31;53.30;;;47.90;;
3811;SDS011;1921;49.368;11.068;2022-09-09T02:37:01;52.90;;;47.57;;
3811;SDS011;1921;49.368;11.068;2022-09-09T02:39:31;53.43;;;48.03;;
3811;SDS011;1921;49.368;11.068;2022-09-09T02:41:57;53.20;;;47.93;;
3811;SDS011;1921;49.368;11.068;2022-09-09T02:44:23;53.50;;;48.00;;
3811;SDS011;1921;49.368;11.068;2022-09-09T02:47:00;53.57;;;48.17;;
3811;SDS011;1921;49.368;11.068;2022-09-09T02:52:14;52.50;;;47.10;;
3811;SDS011;1921;49.368;11.068;2022-09-09T02:54:53;52.10;;;46.90;;
3811;SDS011;1921;49.368;11.068;2022-09-09T02:57:30;52.50;;;47.10;;
3811;SDS011;1921;49.368;11.068;2022-09-09T02:59:58;52.90;;;47.50;;
3811;SDS011;1921;49.368;11.068;2022-09-09T03:02:25;52.20;;;47.00;;
3811;SDS011;1921;49.368;11.068;2022-09-09T03:04:51;52.97;;;47.67;;
3811;SDS011;1921;49.368;11.068;2022-09-09T03:07:20;52.60;;;47.30;;
3811;SDS011;1921;49.368;11.068;2022-09-09T03:09:47;54.40;;;47.40;;
3811;SDS011;1921;49.368;11.068;2022-09-09T03:12:13;53.30;;;47.80;;
3811;SDS011;1921;49.368;11.068;2022-09-09T03:14:39;52.20;;;47.00;;
3811;SDS011;1921;49.368;11.068;2022-09-09T03:17:05;51.97;;;46.77;;
3811;SDS011;1921;49.368;11.068;2022-09-09T03:19:31;52.43;;;47.03;;
3811;SDS011;1921;49.368;11.068;2022-09-09T03:21:58;52.47;;;47.07;;
3811;SDS011;1921;49.368;11.068;2022-09-09T03:24:25;52.60;;;47.20;;
3811;SDS011;1921;49.368;11.068;2022-09-09T03:26:51;52.53;;;47.23;;
3811;SDS011;1921;49.368;11.068;2022-09-09T03:29:16;52.27;;;47.00;;
3811;SDS011;1921;49.368;11.068;2022-09-09T03:31:43;52.90;;;47.60;;
3811;SDS011;1921;49.368;11.068;2022-09-09T03:34:10;52.77;;;47.40;;
3811;SDS011;1921;49.368;11.068;2022-09-09T03:36:36;52.77;;;47.47;;
3811;SDS011;1921;49.368;11.068;2022-09-09T03:39:02;53.00;;;47.70;;
3811;SDS011;1921;49.368;11.068;2022-09-09T03:41:28;52.90;;;47.50;;
3811;SDS011;1921;49.368;11.068;2022-09-09T03:43:55;53.87;;;48.13;;
3811;SDS011;1921;49.368;11.068;2022-09-09T03:46:22;52.27;;;47.07;;
3811;SDS011;1921;49.368;11.068;2022-09-09T03:48:50;53.17;;;47.77;;
3811;SDS011;1921;49.368;11.068;2022-09-09T03:51:17;52.80;;;47.50;;
3811;SDS011;1921;49.368;11.068;2022-09-09T03:53:43;52.60;;;47.20;;
3811;SDS011;1921;49.368;11.068;2022-09-09T03:56:09;53.20;;;47.60;;
3811;SDS011;1921;49.368;11.068;2022-09-09T03:58:36;53.47;;;47.93;;
3811;SDS011;1921;49.368;11.068;2022-09-09T04:01:04;53.10;;;47.63;;
3811;SDS011;1921;49.368;11.068;2022-09-09T04:03:35;52.87;;;47.47;;
3811;SDS011;1921;49.368;11.068;2022-09-09T04:06:02;52.80;;;47.50;;
3811;SDS011;1921;49.368;11.068;2022-09-09T04:08:29;52.77;;;47.40;;
3811;SDS011;1921;49.368;11.068;2022-09-09T04:10:58;52.70;;;47.30;;
3811;SDS011;1921;49.368;11.068;2022-09-09T04:13:26;54.43;;;48.27;;
3811;SDS011;1921;49.368;11.068;2022-09-09T04:15:53;53.33;;;47.87;;
3811;SDS011;1921;49.368;11.068;2022-09-09T04:18:21;52.90;;;47.50;;
3811;SDS011;1921;49.368;11.068;2022-09-09T04:20:49;52.83;;;47.43;;
3811;SDS011;1921;49.368;11.068;2022-09-09T04:23:16;52.80;;;47.40;;
3811;SDS011;1921;49.368;11.068;2022-09-09T04:25:46;52.87;;;47.23;;
3811;SDS011;1921;49.368;11.068;2022-09-09T04:28:14;53.30;;;47.80;;
3811;SDS011;1921;49.368;11.068;2022-09-09T04:30:42;52.83;;;47.50;;
3811;SDS011;1921;49.368;11.068;2022-09-09T04:33:09;52.97;;;47.67;;
3811;SDS011;1921;49.368;11.068;2022-09-09T04:35:35;53.30;;;47.80;;
3811;SDS011;1921;49.368;11.068;2022-09-09T04:38:02;53.10;;;47.80;;
3811;SDS011;1921;49.368;11.068;2022-09-09T04:40:29;53.30;;;47.90;;
3811;SDS011;1921;49.368;11.068;2022-09-09T04:43:02;53.40;;;47.80;;
3811;SDS011;1921;49.368;11.068;2022-09-09T04:45:31;53.57;;;47.53;;
3811;SDS011;1921;49.368;11.068;2022-09-09T04:47:58;59.90;;;48.10;;
3811;SDS011;1921;49.368;11.068;2022-09-09T04:50:24;53.07;;;47.63;;
3811;SDS011;1921;49.368;11.068;2022-09-09T04:52:50;53.07;;;47.73;;
3811;SDS011;1921;49.368;11.068;2022-09-09T04:55:16;52.70;;;47.37;;
3811;SDS011;1921;49.368;11.068;2022-09-09T04:57:45;53.20;;;47.80;;
3811;SDS011;1921;49.368;11.068;2022-09-09T05:00:11;52.60;;;47.07;;
3811;SDS011;1921;49.368;11.068;2022-09-09T05:02:42;52.83;;;47.43;;
3811;SDS011;1921;49.368;11.068;2022-09-09T05:05:08;52.97;;;47.57;;
3811;SDS011;1921;49.368;11.068;2022-09-09T05:07:36;52.67;;;47.27;;
3811;SDS011;1921;49.368;11.068;2022-09-09T05:10:02;52.60;;;47.30;;
3811;SDS011;1921;49.368;11.068;2022-09-09T05:12:30;53.33;;;47.93;;
3811;SDS011;1921;49.368;11.068;2022-09-09T05:14:56;52.53;;;47.13;;
3811;SDS011;1921;49.368;11.068;2022-09-09T05:17:22;52.60;;;47.20;;
3811;SDS011;1921;49.368;11.068;2022-09-09T05:19:51;53.93;;;48.13;;
3811;SDS011;1921;49.368;11.068;2022-09-09T05:22:23;53.70;;;47.47;;
3811;SDS011;1921;49.368;11.068;2022-09-09T05:24:49;53.10;;;47.70;;
3811;SDS011;1921;49.368;11.068;2022-09-09T05:27:18;53.00;;;47.60;;
3811;SDS011;1921;49.368;11.068;2022-09-09T05:29:44;55.03;;;48.10;;
3811;SDS011;1921;49.368;11.068;2022-09-09T05:32:11;53.40;;;47.80;;
3811;SDS011;1921;49.368;11.068;2022-09-09T05:34:38;53.50;;;48.03;;
3811;SDS011;1921;49.368;11.068;2022-09-09T05:37:04;52.97;;;47.57;;
3811;SDS011;1921;49.368;11.068;2022-09-09T05:39:30;53.40;;;47.90;;
3811;SDS011;1921;49.368;11.068;2022-09-09T05:41:55;53.70;;;48.10;;
3811;SDS011;1921;49.368;11.068;2022-09-09T05:44:22;54.03;;;48.33;;
3811;SDS011;1921;49.368;11.068;2022-09-09T05:46:49;53.80;;;48.10;;
3811;SDS011;1921;49.368;11.068;2022-09-09T05:49:15;52.97;;;47.47;;
3811;SDS011;1921;49.368;11.068;2022-09-09T05:51:42;53.80;;;48.10;;
3811;SDS011;1921;49.368;11.068;2022-09-09T05:54:10;53.67;;;47.97;;
3811;SDS011;1921;49.368;11.068;2022-09-09T05:56:38;55.20;;;48.53;;
3811;SDS011;1921;49.368;11.068;2022-09-09T05:59:04;53.97;;;48.27;;
3811;SDS011;1921;49.368;11.068;2022-09-09T06:01:32;53.87;;;48.20;;
3811;SDS011;1921;49.368;11.068;2022-09-09T06:04:00;54.30;;;48.50;;
3811;SDS011;1921;49.368;11.068;2022-09-09T06:06:29;53.53;;;47.93;;
3811;SDS011;1921;49.368;11.068;2022-09-09T06:09:02;55.00;;;48.13;;
3811;SDS011;1921;49.368;11.068;2022-09-09T06:11:32;53.27;;;47.77;;
3811;SDS011;1921;49.368;11.068;2022-09-09T06:13:59;53.90;;;48.20;;
3811;SDS011;1921;49.368;11.068;2022-09-09T06:16:26;54.00;;;48.20;;
3811;SDS011;1921;49.368;11.068;2022-09-09T06:18:54;54.20;;;48.30;;
3811;SDS011;1921;49.368;11.068;2022-09-09T06:21:25;53.63;;;47.93;;
3811;SDS011;1921;49.368;11.068;2022-09-09T06:23:55;54.10;;;48.30;;
3811;SDS011;1921;49.368;11.068;2022-09-09T06:26:22;54.37;;;48.57;;
3811;SDS011;1921;49.368;11.068;2022-09-09T06:28:50;53.90;;;48.10;;
3811;SDS011;1921;49.368;11.068;2022-09-09T06:31:19;54.40;;;48.50;;
3811;SDS011;1921;49.368;11.068;2022-09-09T06:33:47;54.40;;;48.50;;
3811;SDS011;1921;49.368;11.068;2022-09-09T06:36:16;54.47;;;48.47;;
3811;SDS011;1921;49.368;11.068;2022-09-09T06:38:47;55.20;;;48.97;;
3811;SDS011;1921;49.368;11.068;2022-09-09T06:41:14;54.90;;;48.90;;
3811;SDS011;1921;49.368;11.068;2022-09-09T06:43:43;54.60;;;48.60;;
3811;SDS011;1921;49.368;11.068;2022-09-09T06:46:16;55.07;;;49.03;;
3811;SDS011;1921;49.368;11.068;2022-09-09T06:48:53;54.60;;;48.70;;
3811;SDS011;1921;49.368;11.068;2022-09-09T06:51:42;54.70;;;48.70;;
3811;SDS011;1921;49.368;11.068;2022-09-09T06:54:09;56.83;;;49.00;;
3811;SDS011;1921;49.368;11.068;2022-09-09T06:56:37;56.13;;;48.70;;
3811;SDS011;1921;49.368;11.068;2022-09-09T06:59:07;54.50;;;48.60;;
3811;SDS011;1921;49.368;11.068;2022-09-09T07:01:41;54.27;;;48.33;;
3811;SDS011;1921;49.368;11.068;2022-09-09T07:04:14;54.73;;;48.80;;
3811;SDS011;1921;49.368;11.068;2022-09-09T07:06:40;57.27;;;49.07;;
3811;SDS011;1921;49.368;11.068;2022-09-09T07:09:10;55.50;;;48.77;;
3811;SDS011;1921;49.368;11.068;2022-09-09T07:11:45;55.23;;;48.93;;
3811;SDS011;1921;49.368;11.068;2022-09-09T07:14:14;60.20;;;48.70;;
3811;SDS011;1921;49.368;11.068;2022-09-09T07:16:41;56.60;;;49.07;;
3811;SDS011;1921;49.368;11.068;2022-09-09T07:19:07;57.90;;;49.30;;
3811;SDS011;1921;49.368;11.068;2022-09-09T07:21:33;55.53;;;49.03;;
3811;SDS011;1921;49.368;11.068;2022-09-09T07:23:59;60.60;;;49.50;;
3811;SDS011;1921;49.368;11.068;2022-09-09T07:26:27;55.80;;;49.30;;
3811;SDS011;1921;49.368;11.068;2022-09-09T07:28:55;58.23;;;49.37;;
3811;SDS011;1921;49.368;11.068;2022-09-09T07:31:26;57.60;;;49.57;;
3811;SDS011;1921;49.368;11.068;2022-09-09T07:33:55;55.70;;;48.97;;
3811;SDS011;1921;49.368;11.068;2022-09-09T07:36:25;56.23;;;49.37;;
3811;SDS011;1921;49.368;11.068;2022-09-09T07:39:04;57.63;;;49.20;;
3811;SDS011;1921;49.368;11.068;2022-09-09T07:41:39;58.07;;;49.80;;
3811;SDS011;1921;49.368;11.068;2022-09-09T07:44:09;57.73;;;49.53;;
3811;SDS011;1921;49.368;11.068;2022-09-09T07:46:39;57.50;;;49.53;;
3811;SDS011;1921;49.368;11.068;2022-09-09T07:49:06;56.83;;;49.40;;
3811;SDS011;1921;49.368;11.068;2022-09-09T07:51:34;57.93;;;49.90;;
3811;SDS011;1921;49.368;11.068;2022-09-09T07:54:05;58.47;;;49.53;;
3811;SDS011;1921;49.368;11.068;2022-09-09T08:02:05;60.70;;;50.47;;
3811;SDS011;1921;49.368;11.068;2022-09-09T08:04:31;60.30;;;50.07;;
3811;SDS011;1921;49.368;11.068;2022-09-09T08:06:59;60.40;;;50.40;;
3811;SDS011;1921;49.368;11.068;2022-09-09T08:13:36;61.97;;;51.13;;
3811;SDS011;1921;49.368;11.068;2022-09-09T08:16:12;59.50;;;50.50;;
3811;SDS011;1921;49.368;11.068;2022-09-09T08:18:43;62.53;;;50.63;;
3811;SDS011;1921;49.368;11.068;2022-09-09T08:21:17;65.83;;;51.43;;
3811;SDS011;1921;49.368;11.068;2022-09-09T08:23:49;61.80;;;51.20;;
3811;SDS011;1921;49.368;11.068;2022-09-09T08:26:18;63.13;;;51.40;;
3811;SDS011;1921;49.368;11.068;2022-09-09T08:28:57;64.17;;;51.37;;
3811;SDS011;1921;49.368;11.068;2022-09-09T08:31:27;63.50;;;51.73;;
3811;SDS011;1921;49.368;11.068;2022-09-09T08:33:59;65.00;;;52.17;;
3811;SDS011;1921;49.368;11.068;2022-09-09T08:36:35;64.47;;;52.10;;
3811;SDS011;1921;49.368;11.068;2022-09-09T08:39:07;64.20;;;51.37;;
3811;SDS011;1921;49.368;11.068;2022-09-09T08:48:02;62.90;;;51.53;;
3811;SDS011;1921;49.368;11.068;2022-09-09T08:51:06;64.97;;;51.90;;
3811;SDS011;1921;49.368;11.068;2022-09-09T08:53:41;63.20;;;51.43;;
3811;SDS011;1921;49.368;11.068;2022-09-09T08:56:14;62.53;;;51.30;;
3811;SDS011;1921;49.368;11.068;2022-09-09T08:58:56;63.90;;;51.77;;
3811;SDS011;1921;49.368;11.068;2022-09-09T09:12:55;62.50;;;51.30;;
3811;SDS011;1921;49.368;11.068;2022-09-09T09:15:26;62.80;;;51.37;;
3811;SDS011;1921;49.368;11.068;2022-09-09T09:18:01;66.60;;;51.40;;
3811;SDS011;1921;49.368;11.068;2022-09-09T09:20:40;62.37;;;51.60;;
3811;SDS011;1921;49.368;11.068;2022-09-09T09:23:29;61.97;;;51.60;;
3811;SDS011;1921;49.368;11.068;2022-09-09T09:26:10;62.70;;;51.60;;
3811;SDS011;1921;49.368;11.068;2022-09-09T09:28:36;65.20;;;51.40;;
3811;SDS011;1921;49.368;11.068;2022-09-09T09:31:09;62.63;;;51.63;;
3811;SDS011;1921;49.368;11.068;2022-09-09T09:33:50;64.53;;;51.70;;
3811;SDS011;1921;49.368;11.068;2022-09-09T09:36:20;62.33;;;51.10;;
3811;SDS011;1921;49.368;11.068;2022-09-09T09:38:59;61.70;;;51.50;;
3811;SDS011;1921;49.368;11.068;2022-09-09T09:41:34;61.57;;;51.17;;
3811;SDS011;1921;49.368;11.068;2022-09-09T09:44:18;61.37;;;51.10;;
3811;SDS011;1921;49.368;11.068;2022-09-09T09:46:51;62.40;;;51.17;;
3811;SDS011;1921;49.368;11.068;2022-09-09T09:49:29;61.03;;;51.10;;
3811;SDS011;1921;49.368;11.068;2022-09-09T09:51:59;62.77;;;51.90;;
3811;SDS011;1921;49.368;11.068;2022-09-09T09:54:29;64.00;;;51.50;;
3811;SDS011;1921;49.368;11.068;2022-09-09T09:57:11;64.90;;;51.80;;
3811;SDS011;1921;49.368;11.068;2022-09-09T09:59:41;63.10;;;52.10;;
3811;SDS011;1921;49.368;11.068;2022-09-09T10:02:21;68.30;;;52.30;;
3811;SDS011;1921;49.368;11.068;2022-09-09T10:05:03;64.33;;;52.23;;
3811;SDS011;1921;49.368;11.068;2022-09-09T10:07:45;67.33;;;52.20;;
3811;SDS011;1921;49.368;11.068;2022-09-09T10:10:13;64.60;;;52.37;;
3811;SDS011;1921;49.368;11.068;2022-09-09T10:18:58;67.57;;;52.67;;
3811;SDS011;1921;49.368;11.068;2022-09-09T10:33:21;64.97;;;52.37;;
3811;SDS011;1921;49.368;11.068;2022-09-09T10:36:14;66.53;;;52.63;;
3811;SDS011;1921;49.368;11.068;2022-09-09T10:39:04;63.87;;;52.60;;
3811;SDS011;1921;49.368;11.068;2022-09-09T10:41:52;64.07;;;52.60;;
3811;SDS011;1921;49.368;11.068;2022-09-09T10:44:35;63.43;;;52.63;;
3811;SDS011;1921;49.368;11.068;2022-09-09T10:50:20;64.47;;;52.10;;
3811;SDS011;1921;49.368;11.068;2022-09-09T10:56:16;63.92;;;52.58;;
3811;SDS011;1921;49.368;11.068;2022-09-09T11:03:55;65.30;;;52.80;;
3811;SDS011;1921;49.368;11.068;2022-09-09T11:06:30;67.63;;;53.10;;
3811;SDS011;1921;49.368;11.068;2022-09-09T11:09:04;64.20;;;52.77;;
3811;SDS011;1921;49.368;11.068;2022-09-09T11:11:36;67.23;;;53.03;;
3811;SDS011;1921;49.368;11.068;2022-09-09T11:14:14;64.60;;;52.30;;
3811;SDS011;1921;49.368;11.068;2022-09-09T11:19:29;67.30;;;52.23;;
3811;SDS011;1921;49.368;11.068;2022-09-09T11:22:34;64.50;;;52.20;;
3811;SDS011;1921;49.368;11.068;2022-09-09T11:27:51;64.60;;;52.10;;
3811;SDS011;1921;49.368;11.068;2022-09-09T11:42:06;64.63;;;51.70;;
3811;SDS011;1921;49.368;11.068;2022-09-09T11:44:38;64.73;;;52.40;;
3811;SDS011;1921;49.368;11.068;2022-09-09T11:47:16;63.33;;;52.40;;
3811;SDS011;1921;49.368;11.068;2022-09-09T11:50:40;63.70;;;52.20;;
3811;SDS011;1921;49.368;11.068;2022-09-09T11:52:42;62.33;;;52.30;;
3811;SDS011;1921;49.368;11.068;2022-09-09T11:55:26;63.50;;;52.07;;
3811;SDS011;1921;49.368;11.068;2022-09-09T11:58:02;63.73;;;51.90;;
3811;SDS011;1921;49.368;11.068;2022-09-09T12:03:33;63.73;;;51.80;;
3811;SDS011;1921;49.368;11.068;2022-09-09T12:06:15;61.83;;;51.83;;
3811;SDS011;1921;49.368;11.068;2022-09-09T12:09:15;63.00;;;51.87;;
3811;SDS011;1921;49.368;11.068;2022-09-09T12:11:50;61.83;;;51.70;;
3811;SDS011;1921;49.368;11.068;2022-09-09T12:14:21;63.13;;;51.90;;
3811;SDS011;1921;49.368;11.068;2022-09-09T12:17:17;61.07;;;51.20;;
3811;SDS011;1921;49.368;11.068;2022-09-09T12:19:47;61.50;;;51.40;;
3811;SDS011;1921;49.368;11.068;2022-09-09T12:22:30;63.77;;;51.87;;
3811;SDS011;1921;49.368;11.068;2022-09-09T12:25:08;62.40;;;51.53;;
3811;SDS011;1921;49.368;11.068;2022-09-09T12:27:58;62.30;;;51.87;;
3811;SDS011;1921;49.368;11.068;2022-09-09T12:34:13;64.23;;;52.13;;
3811;SDS011;1921;49.368;11.068;2022-09-09T12:36:51;62.07;;;52.07;;
3811;SDS011;1921;49.368;11.068;2022-09-09T12:39:32;61.13;;;51.80;;
3811;SDS011;1921;49.368;11.068;2022-09-09T12:42:15;61.17;;;51.63;;
3811;SDS011;1921;49.368;11.068;2022-09-09T12:47:29;62.00;;;51.80;;
3811;SDS011;1921;49.368;11.068;2022-09-09T12:49:57;62.17;;;51.80;;
3811;SDS011;1921;49.368;11.068;2022-09-09T12:52:29;61.80;;;51.50;;
3811;SDS011;1921;49.368;11.068;2022-09-09T12:55:00;61.77;;;51.50;;
3811;SDS011;1921;49.368;11.068;2022-09-09T12:57:30;62.60;;;51.90;;
3811;SDS011;1921;49.368;11.068;2022-09-09T13:00:10;62.37;;;51.90;;
3811;SDS011;1921;49.368;11.068;2022-09-09T13:02:57;62.67;;;51.60;;
3811;SDS011;1921;49.368;11.068;2022-09-09T13:08:08;60.63;;;51.30;;
3811;SDS011;1921;49.368;11.068;2022-09-09T13:10:46;64.67;;;51.27;;
3811;SDS011;1921;49.368;11.068;2022-09-09T13:13:57;64.35;;;52.17;;
3811;SDS011;1921;49.368;11.068;2022-09-09T13:16:20;60.63;;;50.67;;
3811;SDS011;1921;49.368;11.068;2022-09-09T13:18:50;59.23;;;50.40;;
3811;SDS011;1921;49.368;11.068;2022-09-09T13:21:16;58.20;;;50.27;;
3811;SDS011;1921;49.368;11.068;2022-09-09T13:23:48;60.07;;;50.37;;
3811;SDS011;1921;49.368;11.068;2022-09-09T13:28:52;58.23;;;49.70;;
3811;SDS011;1921;49.368;11.068;2022-09-09T13:31:23;56.53;;;49.30;;
3811;SDS011;1921;49.368;11.068;2022-09-09T13:33:54;59.43;;;50.17;;
3811;SDS011;1921;49.368;11.068;2022-09-09T13:36:30;60.27;;;50.80;;
3811;SDS011;1921;49.368;11.068;2022-09-09T13:39:00;61.07;;;50.73;;
3811;SDS011;1921;49.368;11.068;2022-09-09T13:41:30;58.10;;;50.40;;
3811;SDS011;1921;49.368;11.068;2022-09-09T13:44:14;60.60;;;50.43;;
3811;SDS011;1921;49.368;11.068;2022-09-09T13:46:58;59.70;;;50.70;;
3811;SDS011;1921;49.368;11.068;2022-09-09T13:49:42;61.87;;;51.50;;
3811;SDS011;1921;49.368;11.068;2022-09-09T13:52:12;59.70;;;51.00;;
3811;SDS011;1921;49.368;11.068;2022-09-09T13:54:46;62.42;;;52.30;;
3811;SDS011;1921;49.368;11.068;2022-09-09T13:57:18;59.10;;;50.40;;
3811;SDS011;1921;49.368;11.068;2022-09-09T13:59:49;60.50;;;50.92;;
3811;SDS011;1921;49.368;11.068;2022-09-09T14:02:15;61.60;;;51.90;;
3811;SDS011;1921;49.368;11.068;2022-09-09T14:04:42;57.83;;;50.00;;
3811;SDS011;1921;49.368;11.068;2022-09-09T14:07:10;59.53;;;49.70;;
3811;SDS011;1921;49.368;11.068;2022-09-09T14:09:39;56.67;;;49.33;;
3811;SDS011;1921;49.368;11.068;2022-09-09T14:12:08;58.60;;;49.80;;
3811;SDS011;1921;49.368;11.068;2022-09-09T14:14:38;56.90;;;49.40;;
3811;SDS011;1921;49.368;11.068;2022-09-09T14:19:49;59.33;;;50.17;;
3811;SDS011;1921;49.368;11.068;2022-09-09T14:22:15;58.10;;;49.57;;
3811;SDS011;1921;49.368;11.068;2022-09-09T14:24:42;58.70;;;49.53;;
3811;SDS011;1921;49.368;11.068;2022-09-09T14:27:07;57.40;;;49.80;;
3811;SDS011;1921;49.368;11.068;2022-09-09T14:29:33;56.07;;;49.23;;
3811;SDS011;1921;49.368;11.068;2022-09-09T14:31:59;58.30;;;49.93;;
3811;SDS011;1921;49.368;11.068;2022-09-09T14:34:26;57.07;;;49.80;;
3811;SDS011;1921;49.368;11.068;2022-09-09T14:36:51;61.20;;;49.83;;
3811;SDS011;1921;49.368;11.068;2022-09-09T14:39:17;57.53;;;49.73;;
3811;SDS011;1921;49.368;11.068;2022-09-09T14:41:43;57.80;;;49.50;;
3811;SDS011;1921;49.368;11.068;2022-09-09T14:44:09;57.90;;;50.00;;
3811;SDS011;1921;49.368;11.068;2022-09-09T14:46:35;59.47;;;50.30;;
3811;SDS011;1921;49.368;11.068;2022-09-09T14:49:00;59.67;;;50.50;;
3811;SDS011;1921;49.368;11.068;2022-09-09T14:51:26;67.60;;;50.97;;
3811;SDS011;1921;49.368;11.068;2022-09-09T14:53:57;62.43;;;51.00;;
3811;SDS011;1921;49.368;11.068;2022-09-09T14:56:25;63.30;;;51.40;;
3811;SDS011;1921;49.368;11.068;2022-09-09T14:58:54;61.87;;;51.17;;
3811;SDS011;1921;49.368;11.068;2022-09-09T15:01:22;60.40;;;51.20;;
3811;SDS011;1921;49.368;11.068;2022-09-09T15:03:49;60.80;;;51.00;;
3811;SDS011;1921;49.368;11.068;2022-09-09T15:06:18;60.70;;;51.23;;
3811;SDS011;1921;49.368;11.068;2022-09-09T15:08:49;60.40;;;51.00;;
3811;SDS011;1921;49.368;11.068;2022-09-09T15:11:17;62.20;;;51.23;;
3811;SDS011;1921;49.368;11.068;2022-09-09T15:13:43;61.30;;;51.03;;
3811;SDS011;1921;49.368;11.068;2022-09-09T15:16:11;60.67;;;51.10;;
3811;SDS011;1921;49.368;11.068;2022-09-09T15:18:41;61.60;;;51.77;;
3811;SDS011;1921;49.368;11.068;2022-09-09T15:21:09;62.17;;;51.50;;
3811;SDS011;1921;49.368;11.068;2022-09-09T15:23:40;63.30;;;51.30;;
3811;SDS011;1921;49.368;11.068;2022-09-09T15:26:06;60.13;;;51.20;;
3811;SDS011;1921;49.368;11.068;2022-09-09T15:28:32;62.67;;;51.50;;
3811;SDS011;1921;49.368;11.068;2022-09-09T15:31:04;63.37;;;51.80;;
3811;SDS011;1921;49.368;11.068;2022-09-09T15:33:34;62.20;;;52.03;;
3811;SDS011;1921;49.368;11.068;2022-09-09T15:36:11;64.17;;;51.53;;
3811;SDS011;1921;49.368;11.068;2022-09-09T15:38:48;62.30;;;52.07;;
3811;SDS011;1921;49.368;11.068;2022-09-09T15:41:15;61.60;;;51.37;;
3811;SDS011;1921;49.368;11.068;2022-09-09T15:43:47;60.53;;;51.57;;
3811;SDS011;1921;49.368;11.068;2022-09-09T15:46:34;61.20;;;51.43;;
3811;SDS011;1921;49.368;11.068;2022-09-09T15:51:46;61.57;;;51.50;;
3811;SDS011;1921;49.368;11.068;2022-09-09T15:54:20;59.73;;;51.10;;
3811;SDS011;1921;49.368;11.068;2022-09-09T15:56:51;59.83;;;51.00;;
3811;SDS011;1921;49.368;11.068;2022-09-09T15:59:27;61.30;;;50.80;;
3811;SDS011;1921;49.368;11.068;2022-09-09T16:01:55;59.67;;;51.03;;
3811;SDS011;1921;49.368;11.068;2022-09-09T16:04:22;58.57;;;50.57;;
3811;SDS011;1921;49.368;11.068;2022-09-09T16:06:53;59.30;;;50.83;;
3811;SDS011;1921;49.368;11.068;2022-09-09T16:09:29;59.80;;;51.13;;
3811;SDS011;1921;49.368;11.068;2022-09-09T16:11:58;60.10;;;50.60;;
3811;SDS011;1921;49.368;11.068;2022-09-09T16:14:26;59.27;;;50.70;;
3811;SDS011;1921;49.368;11.068;2022-09-09T16:16:52;59.77;;;51.10;;
3811;SDS011;1921;49.368;11.068;2022-09-09T16:19:18;58.57;;;50.40;;
3811;SDS011;1921;49.368;11.068;2022-09-09T16:21:45;57.90;;;50.17;;
3811;SDS011;1921;49.368;11.068;2022-09-09T16:24:14;59.13;;;50.17;;
3811;SDS011;1921;49.368;11.068;2022-09-09T16:26:48;59.20;;;50.70;;
3811;SDS011;1921;49.368;11.068;2022-09-09T16:29:17;60.50;;;51.33;;
3811;SDS011;1921;49.368;11.068;2022-09-09T16:31:44;58.87;;;50.60;;
3811;SDS011;1921;49.368;11.068;2022-09-09T16:34:11;58.67;;;50.37;;
3811;SDS011;1921;49.368;11.068;2022-09-09T16:36:38;59.13;;;50.67;;
3811;SDS011;1921;49.368;11.068;2022-09-09T16:39:10;59.83;;;50.53;;
3811;SDS011;1921;49.368;11.068;2022-09-09T16:41:38;61.23;;;51.00;;
3811;SDS011;1921;49.368;11.068;2022-09-09T16:44:06;58.93;;;50.60;;
3811;SDS011;1921;49.368;11.068;2022-09-09T16:46:35;58.73;;;50.47;;
3811;SDS011;1921;49.368;11.068;2022-09-09T16:49:04;58.63;;;50.67;;
3811;SDS011;1921;49.368;11.068;2022-09-09T16:51:37;60.17;;;50.90;;
3811;SDS011;1921;49.368;11.068;2022-09-09T16:54:09;58.63;;;50.70;;
3811;SDS011;1921;49.368;11.068;2022-09-09T16:56:37;57.73;;;50.37;;
3811;SDS011;1921;49.368;11.068;2022-09-09T16:59:07;57.47;;;49.90;;
3811;SDS011;1921;49.368;11.068;2022-09-09T17:01:41;57.30;;;50.10;;
3811;SDS011;1921;49.368;11.068;2022-09-09T17:04:11;56.77;;;49.90;;
3811;SDS011;1921;49.368;11.068;2022-09-09T17:06:41;57.50;;;49.57;;
3811;SDS011;1921;49.368;11.068;2022-09-09T17:09:10;56.83;;;49.90;;
3811;SDS011;1921;49.368;11.068;2022-09-09T17:11:37;57.57;;;49.37;;
3811;SDS011;1921;49.368;11.068;2022-09-09T17:14:05;56.70;;;49.50;;
3811;SDS011;1921;49.368;11.068;2022-09-09T17:16:34;55.47;;;49.20;;
3811;SDS011;1921;49.368;11.068;2022-09-09T17:19:02;56.43;;;49.17;;